Archival Weather

Chicago O'Hare International

Chicago, Illinois (KORD)

Report from: Wednesday, September 6, 2023 7:41 AM CDT
Current time: Wednesday, May 29, 2024 7:01 PM CDT

Current weather – Weather history – Daily summaries
Weather forecast

Temperature22.2°C (72.0°F)
Dew point20.0°C (68.0°F)
Winds 11 kts (5.7 m/s, 12.7 mph) South (190°)
Visibility10 mi. (16.1 km)
Clouds Ceiling: Broken clouds 4,100 ft. (1,250 m)
Broken clouds 5,500 ft. (1,676 m)
Overcast 7,500 ft. (2,286 m)
Altimeter29.79 in.Hg (1009 mB)
PrecipitiationTrace
Precip. events Rain began 12:10 PM
Rain ended 12:33 PM
Thunderstorm ended 12:35 PM
Relative humidity87 %
Density altitude1,306 ft. (398 m)
Remarks Automated weather observing station with precipitation discriminator
Cumulonimbus clouds observed distant east southeast
Flight conditions Visual Meteorological Conditions
Raw dataKORD 061241Z 19011KT 10SM BKN041 BKN055 OVC075 22/20 A2979 RMK AO2 RAB10E33 TSE35 CB DSNT E-SE P0000 T02220200
An error has occurred. This application may no longer respond until reloaded. Reload 🗙